createdAt,value
2022-12-17T00:00:30.993Z,25.67
2022-12-17T00:03:18.728Z,28.00
2022-12-17T00:06:04.442Z,28.73
2022-12-17T00:08:49.991Z,25.67
2022-12-17T00:11:36.085Z,25.37
2022-12-17T00:14:20.774Z,23.83
2022-12-17T00:17:06.400Z,27.43
2022-12-17T00:19:53.333Z,23.93
2022-12-17T00:22:41.971Z,24.80
2022-12-17T00:25:28.076Z,25.30
2022-12-17T00:28:13.919Z,25.73
2022-12-17T00:30:59.521Z,25.10
2022-12-17T00:33:45.150Z,26.60
2022-12-17T00:36:31.987Z,25.73
2022-12-17T00:39:17.195Z,27.27
2022-12-17T00:42:02.757Z,25.53
2022-12-17T00:44:48.201Z,25.10
2022-12-17T00:47:33.564Z,26.40
2022-12-17T00:50:18.925Z,28.10
2022-12-17T00:53:17.984Z,27.90
2022-12-17T00:56:03.420Z,26.73
2022-12-17T00:58:48.780Z,25.60
2022-12-17T01:01:34.449Z,23.97
2022-12-17T01:04:22.318Z,26.37
2022-12-17T01:07:07.776Z,25.27
2022-12-17T01:09:54.563Z,26.23
2022-12-17T01:12:41.672Z,27.07
2022-12-17T01:15:27.718Z,24.70
2022-12-17T01:18:13.681Z,25.70
2022-12-17T01:20:59.041Z,23.33
2022-12-17T01:23:44.634Z,25.67
2022-12-17T01:26:31.210Z,24.23
2022-12-17T01:29:16.848Z,25.27
2022-12-17T01:32:02.491Z,26.37
2022-12-17T01:34:48.266Z,23.17
2022-12-17T01:37:33.837Z,24.80
2022-12-17T01:40:19.424Z,24.10
2022-12-17T01:43:06.166Z,21.13
2022-12-17T01:45:56.711Z,25.03
2022-12-17T01:48:46.365Z,25.03
2022-12-17T01:51:33.637Z,24.03
2022-12-17T01:54:20.546Z,26.40
2022-12-17T01:57:06.479Z,24.20
2022-12-17T01:59:59.634Z,23.33
2022-12-17T02:02:45.184Z,22.90
2022-12-17T02:05:30.939Z,22.90
2022-12-17T02:08:25.211Z,23.47
2022-12-17T02:11:21.575Z,21.60
2022-12-17T02:14:17.067Z,25.73
2022-12-17T02:17:09.691Z,25.10
2022-12-17T02:20:05.154Z,22.43
2022-12-17T02:23:04.393Z,22.17
2022-12-17T02:25:58.224Z,22.20
2022-12-17T02:28:46.687Z,24.10
2022-12-17T02:31:34.147Z,22.23
2022-12-17T02:34:20.439Z,25.83
2022-12-17T02:37:05.667Z,25.30
2022-12-17T02:39:51.067Z,23.80
2022-12-17T02:42:51.699Z,23.03
2022-12-17T02:45:39.177Z,23.23
2022-12-17T02:48:26.616Z,25.40
2022-12-17T02:51:12.205Z,25.17
2022-12-17T02:54:02.509Z,25.30
2022-12-17T02:56:48.294Z,25.20
2022-12-17T02:59:33.862Z,23.73
2022-12-17T03:02:20.935Z,25.67
2022-12-17T03:05:21.412Z,25.80
2022-12-17T03:08:11.916Z,24.80
2022-12-17T03:10:57.295Z,23.93
2022-12-17T03:13:46.319Z,25.83
2022-12-17T03:16:37.451Z,26.87
2022-12-17T03:19:24.527Z,25.80
2022-12-17T03:22:10.383Z,24.43
2022-12-17T03:24:55.746Z,22.67
2022-12-17T03:27:42.522Z,25.07
2022-12-17T03:30:34.545Z,23.40
2022-12-17T03:33:21.452Z,25.53
2022-12-17T03:36:11.822Z,23.57
2022-12-17T03:39:05.826Z,23.97
2022-12-17T03:41:51.505Z,23.97
2022-12-17T03:44:36.765Z,23.60
2022-12-17T03:47:22.719Z,23.70
2022-12-17T03:50:07.949Z,28.17
2022-12-17T03:52:54.708Z,22.77
2022-12-17T03:55:40.509Z,23.27
2022-12-17T03:58:26.091Z,23.33
2022-12-17T04:01:11.511Z,23.87
2022-12-17T04:03:56.743Z,25.30
2022-12-17T04:06:43.333Z,22.10
2022-12-17T04:09:30.072Z,23.67
2022-12-17T04:12:16.820Z,24.00
2022-12-17T04:15:02.286Z,24.70
2022-12-17T04:17:47.809Z,24.33
2022-12-17T04:20:33.545Z,23.43
2022-12-17T04:23:18.866Z,25.17
2022-12-17T04:26:05.588Z,23.50
2022-12-17T04:28:51.105Z,23.93
2022-12-17T04:31:37.122Z,22.93
2022-12-17T04:34:22.862Z,22.77
2022-12-17T04:37:08.095Z,25.10
2022-12-17T04:39:54.196Z,22.20
2022-12-17T04:42:40.686Z,25.83
2022-12-17T05:04:27.770Z,24.43
2022-12-17T05:07:13.221Z,22.97
2022-12-17T05:09:58.801Z,24.93
2022-12-17T05:12:44.488Z,26.27
2022-12-17T05:15:31.489Z,23.60
2022-12-17T05:18:24.210Z,23.77
2022-12-17T05:21:09.787Z,24.13
2022-12-17T05:23:55.117Z,24.50
2022-12-17T05:26:42.892Z,24.23
2022-12-17T05:29:29.041Z,24.00
2022-12-17T05:32:16.447Z,24.73
2022-12-17T05:35:02.149Z,24.77
2022-12-17T05:37:47.787Z,23.17
2022-12-17T05:40:32.898Z,24.73
2022-12-17T05:43:31.717Z,25.03
2022-12-17T05:46:18.478Z,25.00
2022-12-17T05:49:05.368Z,24.43
2022-12-17T05:51:50.937Z,23.43
2022-12-17T05:54:36.520Z,23.70
2022-12-17T05:57:21.820Z,23.17
2022-12-17T06:00:07.119Z,25.30
2022-12-17T06:02:52.864Z,23.93
2022-12-17T06:05:40.355Z,23.10
2022-12-17T06:08:27.585Z,24.03
2022-12-17T06:11:17.633Z,24.23
2022-12-17T06:14:03.706Z,23.93
2022-12-17T06:17:03.740Z,24.80
2022-12-17T06:19:49.082Z,21.60
2022-12-17T06:22:36.066Z,24.03
2022-12-17T06:25:21.338Z,22.77
2022-12-17T06:28:06.973Z,25.17
2022-12-17T06:30:52.628Z,24.33
2022-12-17T06:33:38.777Z,24.37
2022-12-17T06:36:24.764Z,24.37
2022-12-17T06:39:11.954Z,22.73
2022-12-17T06:42:03.793Z,23.50
2022-12-17T06:44:50.353Z,21.87
2022-12-17T06:47:35.621Z,23.07
2022-12-17T06:50:21.031Z,21.40
2022-12-17T06:53:06.441Z,22.00
2022-12-17T06:55:54.231Z,21.77
2022-12-17T06:58:39.729Z,23.67
2022-12-17T07:01:25.437Z,22.97
2022-12-17T07:04:22.255Z,22.90
2022-12-17T07:07:08.242Z,23.67
2022-12-17T07:09:53.776Z,22.60
2022-12-17T07:12:41.204Z,24.07
2022-12-17T07:15:27.740Z,25.50
2022-12-17T07:18:14.026Z,23.67
2022-12-17T07:20:59.625Z,25.23
2022-12-17T07:23:45.273Z,23.17
2022-12-17T07:26:30.957Z,22.97
2022-12-17T07:29:18.041Z,23.10
2022-12-17T07:32:03.743Z,22.40
2022-12-17T07:34:49.226Z,26.63
2022-12-17T07:37:34.560Z,22.10
2022-12-17T07:40:19.992Z,25.97
2022-12-17T07:43:05.521Z,25.97
2022-12-17T07:45:52.568Z,23.67
2022-12-17T07:48:38.282Z,22.90
2022-12-17T07:51:23.806Z,24.27
2022-12-17T07:54:11.654Z,25.30
2022-12-17T07:56:57.010Z,24.90
2022-12-17T07:59:42.755Z,27.00
2022-12-17T08:02:29.812Z,23.57
2022-12-17T08:05:15.792Z,24.53
2022-12-17T08:08:01.498Z,24.73
2022-12-17T08:10:46.690Z,24.17
2022-12-17T08:13:32.256Z,23.80
2022-12-17T08:16:18.039Z,22.83
2022-12-17T08:19:04.970Z,24.10
2022-12-17T08:21:50.197Z,21.53
2022-12-17T08:24:35.429Z,25.07
2022-12-17T08:27:21.082Z,23.37
2022-12-17T08:30:06.564Z,22.43
2022-12-17T08:32:52.336Z,23.97
2022-12-17T08:35:38.996Z,24.30
2022-12-17T08:38:25.418Z,23.60
2022-12-17T08:41:11.068Z,22.20
2022-12-17T08:43:56.647Z,21.50
2022-12-17T08:46:41.871Z,22.87
2022-12-17T08:49:27.452Z,20.07
2022-12-17T08:52:14.861Z,23.10
2022-12-17T08:55:00.046Z,22.50
2022-12-17T08:57:45.826Z,21.77
2022-12-17T09:00:32.124Z,22.80
2022-12-17T09:03:18.043Z,22.90
2022-12-17T09:06:03.774Z,22.27
2022-12-17T09:08:49.869Z,22.60
2022-12-17T09:11:35.480Z,24.63
2022-12-17T09:14:21.096Z,25.60
2022-12-17T09:17:06.543Z,21.97
2022-12-17T09:19:52.415Z,22.27
2022-12-17T09:22:37.886Z,25.53
2022-12-17T09:25:26.160Z,24.83
2022-12-17T09:28:11.491Z,27.60
2022-12-17T09:30:56.898Z,25.40
2022-12-17T09:33:42.732Z,20.67
2022-12-17T09:36:28.453Z,22.47
2022-12-17T09:39:13.939Z,24.37
2022-12-17T09:42:09.331Z,23.20
2022-12-17T09:45:02.537Z,33.30
2022-12-17T09:47:57.318Z,30.37
2022-12-17T09:50:43.126Z,31.50
2022-12-17T09:53:39.913Z,24.10
2022-12-17T09:56:40.257Z,27.77
2022-12-17T09:59:31.341Z,27.97
2022-12-17T10:02:16.884Z,23.53
2022-12-17T10:05:04.570Z,29.60
2022-12-17T10:07:53.977Z,25.33
2022-12-17T10:10:41.909Z,23.27
2022-12-17T10:13:40.029Z,23.53
2022-12-17T10:16:45.968Z,24.10
2022-12-17T10:19:38.700Z,21.87
2022-12-17T10:22:30.096Z,25.60
2022-12-17T10:25:15.753Z,22.63
2022-12-17T10:28:01.825Z,25.53
2022-12-17T10:30:47.538Z,22.67
2022-12-17T10:33:39.875Z,23.53
2022-12-17T10:36:39.689Z,26.90
2022-12-17T10:39:31.039Z,24.40
2022-12-17T10:42:16.532Z,27.57
2022-12-17T10:45:02.322Z,24.10
2022-12-17T10:47:48.219Z,25.73
2022-12-17T10:50:36.994Z,27.83
2022-12-17T10:53:34.555Z,23.77
2022-12-17T10:56:20.594Z,24.57
2022-12-17T10:59:08.828Z,23.87
2022-12-17T11:01:57.797Z,22.13
2022-12-17T11:04:46.044Z,24.93
2022-12-17T11:07:38.544Z,23.80
2022-12-17T11:10:28.697Z,24.47
2022-12-17T11:13:20.245Z,23.70
2022-12-17T11:16:10.448Z,21.77
2022-12-17T11:19:03.556Z,22.07
2022-12-17T11:21:53.551Z,23.53
2022-12-17T11:24:52.452Z,23.77
2022-12-17T11:27:42.897Z,23.37
2022-12-17T11:30:31.514Z,23.67
2022-12-17T11:33:42.713Z,23.50
2022-12-17T11:36:38.715Z,22.07
2022-12-17T11:39:29.452Z,21.03
2022-12-17T11:42:23.069Z,20.97
2022-12-17T11:45:13.228Z,21.47
2022-12-17T11:48:06.209Z,22.60
2022-12-17T11:51:02.099Z,25.63
2022-12-17T11:54:04.263Z,24.43
2022-12-17T11:56:53.628Z,23.33
2022-12-17T11:59:51.136Z,23.77
2022-12-17T12:02:51.497Z,23.87
2022-12-17T12:05:46.148Z,22.17
2022-12-17T12:08:40.715Z,22.13
2022-12-17T12:11:36.027Z,22.90
2022-12-17T12:14:30.437Z,19.67
2022-12-17T12:17:38.013Z,22.40
2022-12-17T12:20:39.269Z,33.30
2022-12-17T12:23:32.727Z,22.45
2022-12-17T12:26:24.032Z,23.60
2022-12-17T12:29:15.930Z,25.20
2022-12-17T12:32:07.606Z,28.27
2022-12-17T12:34:59.044Z,26.03
2022-12-17T12:37:45.017Z,23.00
2022-12-17T12:40:35.352Z,23.27
2022-12-17T12:43:23.986Z,23.70
2022-12-17T12:46:15.612Z,25.20
2022-12-17T12:49:04.553Z,26.83
2022-12-17T12:51:54.587Z,25.57
2022-12-17T12:54:40.429Z,24.23
2022-12-17T12:57:47.943Z,21.70
2022-12-17T13:00:56.949Z,23.20
2022-12-17T13:03:48.872Z,23.47
2022-12-17T13:06:42.582Z,23.17
2022-12-17T13:09:35.433Z,23.13
2022-12-17T13:12:23.617Z,22.23
2022-12-17T13:14:56.291Z,20.23
2022-12-17T13:17:34.422Z,20.90
2022-12-17T13:20:28.616Z,20.07
2022-12-17T13:23:27.693Z,21.80
2022-12-17T13:26:20.019Z,22.30
2022-12-17T13:29:13.014Z,22.87
2022-12-17T13:31:48.903Z,21.27
2022-12-17T13:34:21.770Z,19.17
2022-12-17T13:36:55.549Z,19.33
2022-12-17T13:39:35.984Z,19.77
2022-12-17T13:42:04.602Z,19.93
2022-12-17T13:44:39.945Z,22.63
2022-12-17T13:47:21.822Z,18.33
2022-12-17T13:50:24.402Z,18.83
2022-12-17T13:52:40.503Z,23.60
2022-12-17T13:55:18.608Z,18.77
2022-12-17T13:57:47.756Z,21.10
2022-12-17T14:00:22.323Z,18.33
2022-12-17T14:02:50.902Z,19.95
2022-12-17T14:05:28.343Z,17.55
2022-12-17T14:07:59.481Z,20.00
2022-12-17T14:10:29.987Z,20.45
2022-12-17T14:13:06.974Z,17.50
2022-12-17T14:15:35.511Z,20.00
2022-12-17T14:18:04.622Z,18.52
2022-12-17T14:20:36.253Z,17.30
2022-12-17T14:23:09.102Z,20.37
2022-12-17T14:25:40.421Z,17.20
2022-12-17T14:28:23.112Z,18.77
2022-12-17T14:31:24.994Z,17.55
2022-12-17T14:33:40.178Z,18.63
2022-12-17T14:36:17.789Z,17.15
2022-12-17T14:38:54.852Z,17.60
2022-12-17T14:41:45.655Z,18.30
2022-12-17T14:44:21.872Z,18.35
2022-12-17T14:47:10.358Z,17.92
2022-12-17T14:49:41.153Z,17.52
2022-12-17T14:52:14.337Z,20.17
2022-12-17T14:54:47.185Z,17.27
2022-12-17T14:57:23.598Z,17.42
2022-12-17T14:59:52.446Z,17.73
2022-12-17T15:02:26.098Z,17.37
2022-12-17T15:04:57.636Z,15.95
2022-12-17T15:07:27.303Z,14.48
2022-12-17T15:09:56.616Z,15.55
2022-12-17T15:12:26.705Z,14.20
2022-12-17T15:14:54.650Z,17.75
2022-12-17T15:17:22.691Z,18.17
2022-12-17T15:19:55.998Z,16.77
2022-12-17T15:22:24.707Z,17.35
2022-12-17T15:24:52.545Z,17.42
2022-12-17T15:27:20.362Z,15.98
2022-12-17T15:29:49.651Z,17.95
2022-12-17T15:32:20.039Z,15.83
2022-12-17T15:34:48.047Z,15.90
2022-12-17T15:37:20.951Z,17.15
2022-12-17T15:39:51.940Z,15.35
2022-12-17T15:42:37.398Z,16.33
2022-12-17T15:45:08.191Z,16.70
2022-12-17T15:47:36.056Z,15.75
2022-12-17T15:50:04.169Z,17.35
2022-12-17T15:52:32.607Z,14.75
2022-12-17T15:55:00.401Z,16.70
2022-12-17T15:57:28.282Z,16.08
2022-12-17T15:59:56.100Z,16.77
2022-12-17T16:02:25.540Z,16.70
2022-12-17T16:04:54.757Z,16.17
2022-12-17T16:07:22.829Z,14.77
2022-12-17T16:09:50.676Z,16.15
2022-12-17T16:12:18.707Z,18.27
2022-12-17T16:14:46.616Z,16.05
2022-12-17T16:17:14.647Z,17.40
2022-12-17T16:19:43.890Z,14.37
2022-12-17T16:22:11.710Z,17.47
2022-12-17T16:24:45.794Z,17.00
2022-12-17T16:27:13.780Z,16.63
2022-12-17T16:29:42.017Z,15.10
2022-12-17T16:32:10.153Z,15.47
2022-12-17T16:34:38.197Z,18.05
2022-12-17T16:37:07.606Z,17.55
2022-12-17T16:39:35.528Z,15.63
2022-12-17T16:42:03.482Z,18.30
2022-12-17T16:44:31.336Z,17.07
2022-12-17T16:46:59.843Z,22.13
2022-12-17T16:49:28.364Z,16.95
2022-12-17T16:51:57.877Z,18.93
2022-12-17T16:54:30.516Z,17.95
2022-12-17T16:56:58.354Z,19.40
2022-12-17T16:59:26.150Z,18.87
2022-12-17T17:01:54.141Z,19.95
2022-12-17T17:04:23.705Z,17.13
2022-12-17T17:06:53.298Z,17.63
2022-12-17T17:09:22.217Z,19.52
2022-12-17T17:11:52.628Z,20.47
2022-12-17T17:14:20.769Z,20.30
2022-12-17T17:16:48.805Z,19.00
2022-12-17T17:19:16.764Z,21.50
2022-12-17T17:21:50.604Z,21.00
2022-12-17T17:24:21.960Z,21.38
2022-12-17T17:26:52.791Z,21.30
2022-12-17T17:29:20.898Z,22.43
2022-12-17T17:34:37.865Z,19.20
2022-12-17T17:37:05.831Z,21.75
2022-12-17T17:39:34.258Z,21.58
2022-12-17T17:42:03.873Z,21.00
2022-12-17T17:44:31.702Z,23.23
2022-12-17T17:46:59.609Z,23.67
2022-12-17T17:49:27.477Z,23.17
2022-12-17T17:52:11.623Z,24.37
2022-12-17T17:54:40.773Z,23.00
2022-12-17T17:57:10.730Z,25.13
2022-12-17T17:59:39.353Z,26.35
2022-12-17T18:02:09.003Z,24.87
2022-12-17T18:04:37.299Z,23.23
2022-12-17T18:09:53.071Z,24.87
2022-12-17T18:12:39.760Z,25.95
2022-12-17T18:15:17.832Z,25.60
2022-12-17T18:17:48.281Z,24.93
2022-12-17T18:20:16.558Z,26.17
2022-12-17T18:22:45.892Z,24.92
2022-12-17T18:25:14.034Z,28.60
2022-12-17T18:27:43.431Z,25.92
2022-12-17T18:30:11.880Z,27.08
2022-12-17T18:32:39.628Z,27.07
2022-12-17T18:35:08.561Z,29.03
2022-12-17T18:37:36.399Z,27.95
2022-12-17T18:40:04.469Z,27.63
2022-12-17T18:42:49.859Z,29.53
2022-12-17T18:45:19.115Z,27.83
2022-12-17T18:47:46.920Z,25.75
2022-12-17T18:50:14.783Z,28.67
2022-12-17T18:52:42.728Z,29.03
2022-12-17T18:55:10.546Z,27.80
2022-12-17T18:57:38.446Z,27.67
2022-12-17T19:00:08.243Z,27.20
2022-12-17T19:02:37.820Z,28.90
2022-12-17T19:05:06.194Z,27.80
2022-12-17T19:07:34.018Z,28.63
2022-12-17T19:10:01.836Z,27.17
2022-12-17T19:12:29.749Z,26.80
2022-12-17T19:14:57.585Z,29.07
2022-12-17T19:17:26.391Z,28.10
2022-12-17T19:19:55.693Z,30.20
2022-12-17T19:22:23.533Z,27.17
2022-12-17T19:24:51.407Z,28.27
2022-12-17T19:27:19.252Z,27.73
2022-12-17T19:29:49.673Z,29.50
2022-12-17T19:32:18.178Z,26.83
2022-12-17T19:34:46.095Z,28.90
2022-12-17T19:37:15.345Z,30.90
2022-12-17T19:39:43.208Z,29.50
2022-12-17T19:42:24.611Z,28.77
2022-12-17T19:44:53.960Z,29.80
2022-12-17T19:47:22.724Z,29.13
2022-12-17T19:49:50.752Z,28.57
2022-12-17T19:52:19.998Z,27.87
2022-12-17T19:54:47.825Z,28.80
2022-12-17T19:57:15.640Z,31.17
2022-12-17T19:59:43.452Z,30.17
2022-12-17T20:02:12.804Z,29.07
2022-12-17T20:04:40.741Z,30.23
2022-12-17T20:07:08.552Z,30.57
2022-12-17T20:09:37.771Z,28.17
2022-12-17T20:12:06.433Z,31.07
2022-12-17T20:14:36.001Z,31.57
2022-12-17T20:17:05.028Z,32.13
2022-12-17T20:19:34.873Z,30.70
2022-12-17T20:22:05.433Z,31.67
2022-12-17T20:24:33.718Z,31.13
2022-12-17T20:27:03.143Z,29.43
2022-12-17T20:29:31.117Z,32.47
2022-12-17T20:31:59.015Z,31.57
2022-12-17T20:34:27.444Z,29.87
2022-12-17T20:36:55.514Z,32.90
2022-12-17T20:39:27.079Z,33.87
2022-12-17T20:41:56.539Z,33.93
2022-12-17T20:44:26.046Z,30.73
2022-12-17T20:46:53.937Z,31.17
2022-12-17T20:49:21.774Z,32.43
2022-12-17T20:51:49.543Z,33.30
2022-12-17T20:54:17.413Z,32.07
2022-12-17T20:56:45.259Z,34.50
2022-12-17T20:59:16.180Z,29.50
2022-12-17T21:01:51.514Z,34.00
2022-12-17T21:04:22.360Z,34.30
2022-12-17T21:06:50.456Z,33.40
2022-12-17T21:09:20.223Z,35.33
2022-12-17T21:11:48.186Z,35.87
2022-12-17T21:14:17.740Z,33.97
2022-12-17T21:16:47.469Z,33.23
2022-12-17T21:19:18.608Z,35.30
2022-12-17T21:21:46.591Z,33.20
2022-12-17T21:24:14.660Z,33.27
2022-12-17T21:26:44.038Z,34.60
2022-12-17T21:29:12.461Z,32.50
2022-12-17T21:31:41.898Z,33.97
2022-12-17T21:34:14.227Z,33.37
2022-12-17T21:36:42.233Z,33.23
2022-12-17T21:39:12.160Z,35.63
2022-12-17T21:41:44.925Z,31.53
2022-12-17T21:44:15.563Z,32.20
2022-12-17T21:46:48.909Z,33.60
2022-12-17T21:49:19.460Z,36.03
2022-12-17T21:51:47.538Z,34.33
2022-12-17T21:54:19.223Z,33.03
2022-12-17T21:56:48.249Z,33.63
2022-12-17T21:59:16.330Z,30.83
2022-12-17T22:01:44.293Z,32.63
2022-12-17T22:04:12.426Z,33.60
2022-12-17T22:06:48.672Z,34.10
2022-12-17T22:09:40.391Z,34.33
2022-12-17T22:12:29.683Z,31.23
2022-12-17T22:14:57.490Z,32.33
2022-12-17T22:17:25.822Z,31.43
2022-12-17T22:19:53.665Z,34.03
2022-12-17T22:22:22.880Z,33.83
2022-12-17T22:24:50.791Z,31.27
2022-12-17T22:27:18.737Z,31.30
2022-12-17T22:30:03.979Z,33.87
2022-12-17T22:32:49.513Z,33.60
2022-12-17T22:36:01.418Z,30.07
2022-12-17T22:41:59.906Z,32.23
2022-12-17T22:44:38.219Z,32.70
2022-12-17T22:44:40.881Z,30.60
2022-12-17T22:46:31.587Z,35.50
2022-12-17T22:48:59.725Z,30.07
2022-12-17T22:51:31.690Z,32.60
2022-12-17T22:54:06.275Z,32.70
2022-12-17T22:57:02.047Z,30.73
2022-12-17T22:59:23.850Z,31.20
2022-12-17T23:01:51.843Z,28.67
2022-12-17T23:04:19.748Z,32.23
2022-12-17T23:06:47.813Z,32.40
2022-12-17T23:09:19.617Z,33.50
2022-12-17T23:11:48.724Z,32.80
2022-12-17T23:14:17.273Z,30.33
2022-12-17T23:16:45.362Z,33.47
2022-12-17T23:19:13.688Z,29.73
2022-12-17T23:21:41.589Z,31.70
2022-12-17T23:24:09.968Z,34.03
2022-12-17T23:26:39.907Z,32.57
2022-12-17T23:29:10.299Z,32.13
2022-12-17T23:31:40.558Z,32.07
2022-12-17T23:34:09.261Z,32.00
2022-12-17T23:36:37.829Z,32.20
2022-12-17T23:39:06.354Z,33.77
2022-12-17T23:41:34.276Z,32.93
2022-12-17T23:44:03.450Z,32.93
2022-12-17T23:46:31.777Z,33.37
2022-12-17T23:48:59.769Z,33.83
2022-12-17T23:51:28.102Z,30.63
2022-12-17T23:53:55.916Z,34.93
2022-12-17T23:56:26.272Z,30.43
2022-12-17T23:58:56.529Z,34.63
